createdAt,value
2022-11-25T00:01:25.191Z,17.52
2022-11-25T00:03:55.302Z,12.95
2022-11-25T00:06:27.055Z,16.27
2022-11-25T00:09:03.236Z,18.38
2022-11-25T00:11:31.209Z,15.23
2022-11-25T00:13:59.153Z,16.13
2022-11-25T00:16:27.595Z,12.90
2022-11-25T00:18:56.785Z,29.90
2022-11-25T00:21:28.096Z,16.40
2022-11-25T00:24:01.044Z,23.80
2022-11-25T00:26:32.495Z,12.48
2022-11-25T00:29:02.257Z,17.67
2022-11-25T00:31:33.098Z,16.33
2022-11-25T00:34:01.048Z,16.45
2022-11-25T00:36:38.688Z,14.90
2022-11-25T00:39:10.468Z,13.95
2022-11-25T00:41:55.601Z,15.70
2022-11-25T00:44:40.415Z,11.95
2022-11-25T00:47:14.494Z,14.10
2022-11-25T00:49:43.656Z,14.10
2022-11-25T00:52:15.389Z,11.02
2022-11-25T00:54:44.665Z,12.27
2022-11-25T00:57:13.135Z,14.27
2022-11-25T00:59:41.066Z,23.55
2022-11-25T01:02:08.882Z,13.68
2022-11-25T01:04:36.570Z,15.38
2022-11-25T01:07:04.783Z,16.75
2022-11-25T01:09:32.823Z,12.52
2022-11-25T01:12:00.386Z,22.63
2022-11-25T01:14:28.328Z,16.67
2022-11-25T01:16:56.236Z,17.77
2022-11-25T01:19:23.918Z,17.95
2022-11-25T01:21:51.383Z,16.77
2022-11-25T01:24:19.646Z,15.20
2022-11-25T01:26:47.156Z,17.17
2022-11-25T01:29:17.702Z,18.00
2022-11-25T01:31:46.372Z,12.27
2022-11-25T01:34:20.908Z,14.60
2022-11-25T01:36:48.535Z,19.30
2022-11-25T01:39:27.022Z,16.70
2022-11-25T01:41:57.970Z,20.67
2022-11-25T01:44:29.478Z,16.40
2022-11-25T01:47:13.733Z,14.45
2022-11-25T01:50:06.212Z,23.55
2022-11-25T01:52:41.637Z,19.08
2022-11-25T01:55:16.893Z,18.52
2022-11-25T01:58:16.099Z,23.85
2022-11-25T02:00:51.068Z,24.33
2022-11-25T02:03:28.793Z,16.65
2022-11-25T02:06:04.669Z,9.00
2022-11-25T02:08:32.209Z,10.95
2022-11-25T02:11:04.571Z,18.17
2022-11-25T02:16:01.062Z,13.00
2022-11-25T02:18:29.023Z,16.35
2022-11-25T02:20:56.686Z,11.80
2022-11-25T02:23:38.687Z,15.55
2022-11-25T02:26:06.566Z,22.73
2022-11-25T02:28:34.610Z,13.43
2022-11-25T02:31:02.420Z,20.65
2022-11-25T02:33:29.920Z,26.42
2022-11-25T02:35:59.240Z,18.02
2022-11-25T02:38:40.839Z,17.15
2022-11-25T02:41:11.129Z,14.50
2022-11-25T02:43:39.403Z,20.55
2022-11-25T02:46:08.353Z,16.80
2022-11-25T02:49:07.339Z,18.42
2022-11-25T02:51:29.842Z,16.15
2022-11-25T02:53:57.928Z,11.05
2022-11-25T02:56:29.429Z,22.48
2022-11-25T02:58:57.124Z,11.13
2022-11-25T03:01:24.867Z,12.43
2022-11-25T03:03:52.446Z,14.95
2022-11-25T03:06:20.112Z,13.10
2022-11-25T03:08:47.641Z,18.55
2022-11-25T03:11:15.673Z,15.75
2022-11-25T03:13:43.246Z,23.48
2022-11-25T03:16:10.886Z,16.88
2022-11-25T03:18:38.427Z,17.58
2022-11-25T03:21:07.284Z,11.27
2022-11-25T03:23:34.828Z,14.25
2022-11-25T03:26:06.722Z,17.13
2022-11-25T03:28:34.159Z,16.15
2022-11-25T03:31:01.767Z,15.25
2022-11-25T03:33:29.271Z,17.15
2022-11-25T03:35:56.728Z,15.60
2022-11-25T03:38:24.187Z,16.67
2022-11-25T03:40:51.624Z,18.02
2022-11-25T03:43:19.101Z,15.30
2022-11-25T03:45:50.714Z,18.45
2022-11-25T03:48:18.219Z,10.32
2022-11-25T03:50:45.668Z,12.27
2022-11-25T03:53:13.099Z,9.68
2022-11-25T03:55:40.548Z,16.55
2022-11-25T03:58:07.965Z,9.93
2022-11-25T04:00:35.531Z,12.75
2022-11-25T04:03:02.975Z,10.20
2022-11-25T04:05:30.479Z,9.35
2022-11-25T04:07:58.339Z,6.03
2022-11-25T04:10:26.111Z,9.48
2022-11-25T04:12:52.618Z,9.13
2022-11-25T04:15:20.639Z,12.57
2022-11-25T04:17:48.190Z,9.75
2022-11-25T04:20:16.601Z,5.70
2022-11-25T04:22:44.516Z,10.50
2022-11-25T04:25:12.173Z,10.43
2022-11-25T04:27:39.720Z,9.38
2022-11-25T04:30:08.675Z,7.30
2022-11-25T04:32:38.645Z,5.63
2022-11-25T04:35:06.701Z,7.38
2022-11-25T04:37:34.204Z,4.35
2022-11-25T04:40:01.784Z,7.03
2022-11-25T04:42:36.583Z,4.85
2022-11-25T04:45:22.622Z,7.53
2022-11-25T04:47:51.044Z,11.82
2022-11-25T04:50:21.700Z,5.78
2022-11-25T04:52:49.279Z,3.17
2022-11-25T04:55:17.382Z,8.82
2022-11-25T04:57:44.861Z,3.83
2022-11-25T05:00:11.977Z,2.88
2022-11-25T05:02:39.740Z,4.32
2022-11-25T05:05:07.851Z,4.57
2022-11-25T05:07:35.465Z,5.40
2022-11-25T05:10:03.135Z,2.05
2022-11-25T05:12:31.682Z,5.22
2022-11-25T05:14:59.179Z,7.40
2022-11-25T05:17:30.002Z,6.13
2022-11-25T05:19:57.695Z,2.70
2022-11-25T05:22:31.126Z,2.42
2022-11-25T05:24:59.078Z,3.15
2022-11-25T05:27:28.503Z,3.75
2022-11-25T05:29:56.496Z,4.15
2022-11-25T05:32:24.696Z,2.72
2022-11-25T05:34:52.214Z,4.97
2022-11-25T05:37:24.116Z,9.52
2022-11-25T05:39:52.008Z,4.10
2022-11-25T05:42:19.529Z,3.75
2022-11-25T05:44:47.134Z,4.45
2022-11-25T05:47:14.735Z,3.72
2022-11-25T05:49:42.303Z,3.20
2022-11-25T05:52:09.902Z,4.70
2022-11-25T05:54:37.546Z,4.97
2022-11-25T05:57:05.267Z,2.95
2022-11-25T05:59:32.770Z,9.50
2022-11-25T06:02:00.454Z,5.57
2022-11-25T06:04:28.003Z,4.07
2022-11-25T06:06:55.518Z,6.63
2022-11-25T06:09:23.109Z,5.00
2022-11-25T06:11:50.693Z,2.70
2022-11-25T06:14:18.700Z,8.70
2022-11-25T06:16:46.360Z,6.40
2022-11-25T06:19:13.878Z,5.03
2022-11-25T06:21:41.364Z,6.72
2022-11-25T06:24:09.038Z,6.97
2022-11-25T06:26:36.561Z,5.03
2022-11-25T06:29:04.180Z,4.82
2022-11-25T06:31:31.777Z,6.53
2022-11-25T06:33:59.375Z,6.80
2022-11-25T06:36:26.903Z,7.22
2022-11-25T06:38:55.381Z,6.70
2022-11-25T06:41:23.804Z,6.05
2022-11-25T06:43:51.319Z,5.93
2022-11-25T06:46:24.937Z,5.68
2022-11-25T06:48:54.232Z,5.25
2022-11-25T06:51:22.034Z,7.32
2022-11-25T06:53:49.555Z,6.55
2022-11-25T06:56:22.713Z,7.97
2022-11-25T06:58:51.903Z,5.88
2022-11-25T07:01:25.788Z,7.65
2022-11-25T07:03:57.654Z,5.43
2022-11-25T07:06:25.310Z,8.02
2022-11-25T07:08:53.192Z,8.20
2022-11-25T07:11:27.833Z,13.75
2022-11-25T07:13:57.848Z,8.77
2022-11-25T07:16:25.956Z,5.93
2022-11-25T07:18:53.627Z,12.55
2022-11-25T07:21:24.460Z,5.45
2022-11-25T07:23:53.630Z,7.93
2022-11-25T07:26:23.814Z,9.82
2022-11-25T07:28:53.243Z,5.88
2022-11-25T07:31:28.139Z,6.03
2022-11-25T07:33:58.421Z,10.75
2022-11-25T07:36:26.237Z,13.32
2022-11-25T07:38:54.098Z,12.57
2022-11-25T07:41:24.853Z,15.07
2022-11-25T07:44:01.708Z,11.32
2022-11-25T07:46:32.079Z,7.13
2022-11-25T07:49:02.761Z,7.47
2022-11-25T07:51:51.058Z,9.45
2022-11-25T07:54:18.690Z,11.20
2022-11-25T07:56:46.619Z,14.88
2022-11-25T07:59:22.520Z,10.75
2022-11-25T08:01:55.192Z,13.63
2022-11-25T08:04:23.525Z,10.70
2022-11-25T08:06:54.318Z,10.57
2022-11-25T08:09:24.142Z,7.30
2022-11-25T08:11:52.092Z,11.70
2022-11-25T08:14:19.789Z,8.88
2022-11-25T08:16:47.703Z,9.07
2022-11-25T08:19:18.079Z,5.97
2022-11-25T08:21:47.835Z,12.52
2022-11-25T08:24:18.022Z,12.65
2022-11-25T08:26:45.652Z,11.13
2022-11-25T08:29:17.719Z,10.32
2022-11-25T08:31:45.691Z,5.03
2022-11-25T08:34:22.185Z,5.75
2022-11-25T08:36:49.904Z,11.32
2022-11-25T08:42:07.987Z,9.57
2022-11-25T08:44:36.603Z,10.05
2022-11-25T08:47:04.434Z,11.95
2022-11-25T08:49:36.257Z,7.55
2022-11-25T08:52:08.157Z,10.00
2022-11-25T08:54:35.760Z,7.05
2022-11-25T08:57:03.630Z,10.15
2022-11-25T08:59:31.130Z,13.20
2022-11-25T09:01:58.824Z,6.85
2022-11-25T09:04:26.528Z,7.68
2022-11-25T09:06:54.119Z,9.80
2022-11-25T09:09:21.700Z,6.07
2022-11-25T09:11:49.388Z,7.88
2022-11-25T09:14:17.078Z,8.38
2022-11-25T09:16:44.853Z,8.75
2022-11-25T09:19:12.469Z,11.75
2022-11-25T09:21:40.222Z,13.20
2022-11-25T09:24:07.756Z,6.65
2022-11-25T09:26:39.590Z,9.50
2022-11-25T09:29:07.068Z,5.85
2022-11-25T09:31:34.781Z,6.35
2022-11-25T09:34:02.364Z,7.82
2022-11-25T09:36:30.027Z,9.13
2022-11-25T09:38:57.763Z,8.88
2022-11-25T09:42:10.134Z,12.15
2022-11-25T09:44:58.011Z,5.70
2022-11-25T09:47:46.545Z,4.68
2022-11-25T09:50:30.417Z,8.45
2022-11-25T09:53:12.109Z,11.95
2022-11-25T09:55:46.254Z,8.90
2022-11-25T09:58:36.609Z,9.95
2022-11-25T10:01:13.257Z,7.38
2022-11-25T10:04:06.342Z,9.40
2022-11-25T10:06:41.872Z,7.28
2022-11-25T10:09:18.924Z,12.60
2022-11-25T10:12:04.414Z,9.13
2022-11-25T10:14:48.358Z,7.32
2022-11-25T10:17:44.270Z,4.55
2022-11-25T10:20:18.595Z,6.20
2022-11-25T10:22:49.141Z,10.57
2022-11-25T10:25:26.212Z,4.30
2022-11-25T10:28:01.070Z,8.48
2022-11-25T10:30:46.856Z,10.15
2022-11-25T10:33:21.416Z,11.57
2022-11-25T10:36:00.507Z,8.48
2022-11-25T10:38:40.426Z,11.73
2022-11-25T10:41:08.577Z,6.93
2022-11-25T10:43:41.122Z,5.47
2022-11-25T10:46:18.862Z,8.13
2022-11-25T10:49:00.479Z,8.40
2022-11-25T10:51:33.870Z,9.93
2022-11-25T10:54:16.465Z,14.77
2022-11-25T10:56:50.609Z,10.20
2022-11-25T10:59:36.502Z,16.88
2022-11-25T11:02:19.408Z,16.08
2022-11-25T11:04:55.185Z,7.55
2022-11-25T11:07:23.647Z,15.18
2022-11-25T11:09:52.270Z,11.52
2022-11-25T11:12:23.106Z,6.80
2022-11-25T11:14:51.021Z,13.68
2022-11-25T11:17:31.896Z,12.25
2022-11-25T11:20:09.348Z,6.90
2022-11-25T11:22:46.545Z,7.45
2022-11-25T11:25:23.560Z,9.23
2022-11-25T11:27:51.176Z,10.30
2022-11-25T11:30:21.804Z,11.23
2022-11-25T11:33:33.986Z,7.28
2022-11-25T11:36:18.139Z,8.33
2022-11-25T11:38:56.472Z,5.65
2022-11-25T11:41:29.817Z,9.23
2022-11-25T11:44:24.580Z,9.73
2022-11-25T11:47:01.321Z,12.70
2022-11-25T11:49:30.682Z,8.88
2022-11-25T11:52:10.072Z,8.65
2022-11-25T11:54:53.802Z,8.27
2022-11-25T11:57:34.540Z,9.98
2022-11-25T12:00:12.797Z,7.43
2022-11-25T12:02:58.457Z,6.53
2022-11-25T12:05:32.078Z,7.07
2022-11-25T12:08:27.385Z,9.38
2022-11-25T12:10:59.581Z,9.75
2022-11-25T12:14:01.164Z,13.20
2022-11-25T12:16:35.169Z,8.25
2022-11-25T12:19:13.996Z,6.60
2022-11-25T12:22:16.729Z,9.73
2022-11-25T12:24:55.691Z,7.05
2022-11-25T12:27:32.688Z,6.75
2022-11-25T12:30:18.746Z,14.00
2022-11-25T12:33:11.172Z,8.38
2022-11-25T12:35:59.804Z,9.68
2022-11-25T12:38:43.961Z,16.50
2022-11-25T12:41:38.302Z,7.28
2022-11-25T12:44:15.424Z,13.77
2022-11-25T12:46:42.878Z,13.27
2022-11-25T12:49:19.448Z,9.10
2022-11-25T12:52:22.465Z,10.32
2022-11-25T12:55:11.676Z,14.93
2022-11-25T12:57:41.964Z,12.05
2022-11-25T13:00:40.917Z,10.65
2022-11-25T13:03:43.704Z,12.10
2022-11-25T13:06:24.241Z,9.85
2022-11-25T13:09:05.011Z,11.25
2022-11-25T13:11:32.932Z,16.35
2022-11-25T13:14:29.853Z,11.05
2022-11-25T13:17:00.417Z,10.25
2022-11-25T13:19:28.428Z,15.52
2022-11-25T13:22:04.428Z,12.32
2022-11-25T13:24:36.092Z,13.27
2022-11-25T13:27:05.334Z,14.43
2022-11-25T13:29:32.808Z,15.65
2022-11-25T13:32:02.568Z,18.80
2022-11-25T13:34:33.127Z,6.63
2022-11-25T13:37:02.276Z,13.77
2022-11-25T13:39:31.184Z,6.55
2022-11-25T13:42:04.669Z,14.93
2022-11-25T13:44:35.930Z,16.27
2022-11-25T13:47:42.777Z,22.52
2022-11-25T13:50:21.821Z,9.10
2022-11-25T13:53:09.016Z,11.85
2022-11-25T13:55:42.542Z,16.33
2022-11-25T13:58:26.815Z,14.95
2022-11-25T14:01:30.183Z,21.02
2022-11-25T14:04:00.440Z,15.25
2022-11-25T14:06:35.546Z,10.13
2022-11-25T14:09:29.316Z,15.95
2022-11-25T14:12:12.482Z,10.98
2022-11-25T14:14:51.471Z,10.80
2022-11-25T14:17:31.138Z,10.23
2022-11-25T14:20:30.849Z,14.85
2022-11-25T14:23:00.965Z,16.17
2022-11-25T14:25:32.859Z,12.68
2022-11-25T14:28:48.803Z,18.40
2022-11-25T14:31:20.981Z,12.98
2022-11-25T14:34:02.574Z,13.07
2022-11-25T14:36:41.148Z,9.55
2022-11-25T14:39:53.724Z,11.75
2022-11-25T14:42:26.236Z,13.52
2022-11-25T14:44:58.405Z,13.75
2022-11-25T14:47:36.039Z,11.27
2022-11-25T14:53:07.333Z,14.15
2022-11-25T14:58:02.660Z,13.77
2022-11-25T15:00:30.379Z,14.30
2022-11-25T15:03:03.581Z,18.90
2022-11-25T15:05:41.234Z,16.85
2022-11-25T15:08:08.719Z,12.52
2022-11-25T15:10:59.973Z,11.70
2022-11-25T15:13:34.788Z,20.95
2022-11-25T15:16:17.573Z,19.38
2022-11-25T15:18:51.627Z,17.83
2022-11-25T15:21:24.065Z,11.48
2022-11-25T15:23:51.780Z,16.45
2022-11-25T15:26:22.737Z,16.73
2022-11-25T15:28:57.052Z,18.65
2022-11-25T15:31:30.017Z,16.58
2022-11-25T15:34:02.108Z,12.07
2022-11-25T15:36:29.920Z,17.65
2022-11-25T15:39:15.037Z,17.73
2022-11-25T15:41:48.060Z,20.75
2022-11-25T15:44:27.338Z,11.27
2022-11-25T15:47:05.132Z,18.10
2022-11-25T15:49:35.823Z,24.00
2022-11-25T15:52:13.860Z,16.27
2022-11-25T15:54:45.039Z,22.40
2022-11-25T15:57:31.688Z,13.85
2022-11-25T15:59:59.209Z,15.02
2022-11-25T16:02:35.553Z,15.48
2022-11-25T16:05:15.409Z,20.15
2022-11-25T16:07:52.063Z,12.77
2022-11-25T16:10:20.632Z,16.70
2022-11-25T16:13:21.727Z,18.83
2022-11-25T16:15:57.759Z,14.43
2022-11-25T16:18:55.487Z,16.92
2022-11-25T16:21:30.545Z,17.90
2022-11-25T16:24:02.029Z,18.00
2022-11-25T16:26:33.019Z,15.33
2022-11-25T16:29:03.086Z,15.07
2022-11-25T16:31:30.691Z,15.63
2022-11-25T16:34:10.733Z,22.73
2022-11-25T16:36:38.296Z,21.70
2022-11-25T16:39:05.904Z,24.50
2022-11-25T16:41:33.763Z,20.60
2022-11-25T16:44:04.811Z,14.95
2022-11-25T16:46:35.445Z,17.10
2022-11-25T16:49:09.241Z,15.73
2022-11-25T16:51:36.782Z,18.10
2022-11-25T16:54:04.828Z,20.80
2022-11-25T16:56:32.788Z,31.10
2022-11-25T16:59:00.785Z,17.10
2022-11-25T17:01:30.401Z,18.27
2022-11-25T17:03:58.315Z,15.55
2022-11-25T17:06:29.959Z,14.68
2022-11-25T17:08:57.859Z,13.30
2022-11-25T17:11:31.126Z,18.33
2022-11-25T17:14:02.228Z,25.02
2022-11-25T17:16:31.223Z,16.35
2022-11-25T17:19:01.493Z,17.00
2022-11-25T17:21:29.620Z,21.30
2022-11-25T17:24:02.797Z,19.65
2022-11-25T17:26:41.261Z,16.10
2022-11-25T17:29:14.135Z,15.32
2022-11-25T17:31:42.218Z,15.30
2022-11-25T17:34:18.708Z,15.63
2022-11-25T17:36:46.610Z,14.57
2022-11-25T17:39:15.787Z,21.38
2022-11-25T17:41:47.192Z,17.88
2022-11-25T17:44:27.216Z,10.90
2022-11-25T17:46:56.340Z,23.17
2022-11-25T17:49:24.388Z,17.98
2022-11-25T17:51:52.643Z,24.80
2022-11-25T17:54:20.133Z,27.23
2022-11-25T17:56:52.284Z,13.63
2022-11-25T17:59:27.578Z,24.88
2022-11-25T18:01:55.999Z,16.10
2022-11-25T18:04:25.480Z,19.77
2022-11-25T18:06:53.590Z,18.83
2022-11-25T18:09:21.422Z,19.17
2022-11-25T18:11:52.863Z,13.40
2022-11-25T18:14:31.896Z,16.00
2022-11-25T18:17:03.290Z,19.40
2022-11-25T18:19:30.848Z,18.83
2022-11-25T18:22:01.872Z,14.07
2022-11-25T18:24:29.433Z,10.05
2022-11-25T18:26:57.691Z,15.82
2022-11-25T18:29:27.083Z,17.77
2022-11-25T18:31:56.596Z,22.58
2022-11-25T18:34:25.266Z,19.83
2022-11-25T18:36:53.339Z,21.05
2022-11-25T18:39:21.626Z,18.50
2022-11-25T18:41:53.881Z,18.45
2022-11-25T18:44:29.972Z,18.23
2022-11-25T18:46:57.529Z,21.23
2022-11-25T18:49:25.143Z,22.67
2022-11-25T18:51:52.629Z,23.80
2022-11-25T18:54:20.212Z,29.30
2022-11-25T18:56:51.928Z,21.33
2022-11-25T18:59:27.683Z,25.17
2022-11-25T19:01:55.762Z,24.10
2022-11-25T19:04:23.537Z,17.80
2022-11-25T19:06:51.149Z,16.15
2022-11-25T19:09:19.038Z,19.45
2022-11-25T19:11:52.333Z,26.27
2022-11-25T19:14:33.197Z,19.05
2022-11-25T19:17:04.464Z,27.50
2022-11-25T19:19:32.142Z,17.75
2022-11-25T19:22:01.428Z,24.10
2022-11-25T19:24:29.641Z,21.25
2022-11-25T19:26:58.214Z,26.27
2022-11-25T19:29:42.057Z,20.17
2022-11-25T19:32:21.967Z,21.98
2022-11-25T19:34:54.576Z,19.77
2022-11-25T19:37:24.158Z,16.50
2022-11-25T19:39:53.608Z,18.70
2022-11-25T19:42:21.148Z,30.48
2022-11-25T19:44:48.875Z,26.90
2022-11-25T19:47:27.636Z,18.10
2022-11-25T19:50:00.131Z,18.38
2022-11-25T19:52:37.676Z,17.30
2022-11-25T19:55:17.347Z,26.83
2022-11-25T19:57:45.005Z,21.77
2022-11-25T20:00:14.975Z,18.48
2022-11-25T20:02:43.666Z,28.10
2022-11-25T20:05:33.610Z,25.50
2022-11-25T20:08:01.214Z,24.30
2022-11-25T20:10:31.789Z,22.25
2022-11-25T20:13:00.203Z,29.40
2022-11-25T20:15:27.887Z,19.33
2022-11-25T20:18:00.019Z,20.30
2022-11-25T20:20:33.669Z,21.45
2022-11-25T20:23:06.107Z,23.92
2022-11-25T20:25:43.519Z,19.52
2022-11-25T20:28:31.330Z,26.30
2022-11-25T20:30:59.608Z,16.83
2022-11-25T20:33:28.384Z,16.80
2022-11-25T20:36:08.471Z,24.77
2022-11-25T20:38:37.431Z,22.33
2022-11-25T20:41:05.652Z,36.00
2022-11-25T20:43:41.359Z,20.00
2022-11-25T20:46:18.434Z,18.55
2022-11-25T20:48:46.711Z,21.63
2022-11-25T20:51:21.632Z,36.42
2022-11-25T20:53:51.775Z,18.75
2022-11-25T20:56:22.394Z,21.55
2022-11-25T20:58:50.018Z,23.52
2022-11-25T21:01:19.958Z,26.83
2022-11-25T21:03:49.315Z,18.30
2022-11-25T21:06:28.913Z,20.42
2022-11-25T21:08:58.917Z,32.15
2022-11-25T21:11:27.883Z,20.45
2022-11-25T21:13:55.865Z,20.20
2022-11-25T21:16:23.429Z,32.40
2022-11-25T21:18:50.980Z,24.45
2022-11-25T21:21:34.130Z,18.30
2022-11-25T21:24:18.434Z,19.52
2022-11-25T21:26:46.053Z,23.38
2022-11-25T21:29:16.695Z,27.58
2022-11-25T21:31:45.473Z,22.00
2022-11-25T21:34:14.827Z,20.20
2022-11-25T21:36:44.374Z,32.60
2022-11-25T21:39:33.663Z,19.23
2022-11-25T21:42:06.226Z,21.50
2022-11-25T21:44:41.832Z,17.63
2022-11-25T21:47:24.876Z,20.73
2022-11-25T21:49:53.638Z,20.58
2022-11-25T21:52:21.272Z,20.00
2022-11-25T21:54:48.855Z,16.40
2022-11-25T21:57:24.068Z,22.65
2022-11-25T21:59:51.734Z,14.23
2022-11-25T22:02:24.540Z,25.15
2022-11-25T22:04:52.737Z,22.67
2022-11-25T22:07:20.583Z,26.77
2022-11-25T22:09:48.513Z,13.68
2022-11-25T22:12:30.725Z,16.90
2022-11-25T22:15:00.125Z,22.70
2022-11-25T22:17:28.334Z,22.52
2022-11-25T22:19:57.062Z,25.50
2022-11-25T22:22:24.705Z,18.33
2022-11-25T22:24:52.396Z,25.90
2022-11-25T22:27:31.308Z,18.95
2022-11-25T22:29:59.031Z,22.55
2022-11-25T22:32:26.874Z,19.20
2022-11-25T22:34:54.608Z,19.23
2022-11-25T22:37:24.705Z,15.98
2022-11-25T22:39:52.547Z,36.92
2022-11-25T22:42:30.654Z,12.50
2022-11-25T22:45:00.167Z,22.52
2022-11-25T22:47:48.215Z,23.45
2022-11-25T22:50:18.442Z,21.08
2022-11-25T22:52:46.071Z,24.98
2022-11-25T22:55:20.859Z,19.60
2022-11-25T22:57:50.473Z,18.48
2022-11-25T23:00:24.832Z,23.58
2022-11-25T23:02:55.483Z,18.85
2022-11-25T23:05:33.332Z,21.45
2022-11-25T23:08:15.792Z,23.67
2022-11-25T23:10:44.193Z,22.58
2022-11-25T23:13:12.034Z,22.63
2022-11-25T23:15:45.554Z,20.98
2022-11-25T23:18:17.013Z,25.92
2022-11-25T23:20:44.542Z,23.00
2022-11-25T23:23:24.390Z,22.95
2022-11-25T23:25:52.298Z,18.73
2022-11-25T23:28:20.673Z,17.33
2022-11-25T23:30:54.493Z,23.00
2022-11-25T23:33:33.560Z,23.50
2022-11-25T23:36:06.219Z,15.15
2022-11-25T23:38:42.599Z,14.30
2022-11-25T23:41:23.728Z,21.80
2022-11-25T23:43:51.433Z,19.83
2022-11-25T23:46:23.787Z,16.58
2022-11-25T23:51:25.604Z,22.88
2022-11-25T23:53:53.897Z,23.02
2022-11-25T23:56:21.629Z,19.83
2022-11-25T23:58:49.599Z,16.98
